createdAt,value
2023-05-22T00:01:26.678Z,3.50
2023-05-22T00:03:54.696Z,3.67
2023-05-22T00:06:22.425Z,3.60
2023-05-22T00:08:49.323Z,3.65
2023-05-22T00:11:16.758Z,4.00
2023-05-22T00:13:43.651Z,3.65
2023-05-22T00:16:10.550Z,3.53
2023-05-22T00:18:37.461Z,4.15
2023-05-22T00:21:04.778Z,3.15
2023-05-22T00:23:31.704Z,3.90
2023-05-22T00:25:58.531Z,3.08
2023-05-22T00:28:25.433Z,3.50
2023-05-22T00:30:52.486Z,3.97
2023-05-22T00:33:19.528Z,3.30
2023-05-22T00:35:48.696Z,3.22
2023-05-22T00:38:38.012Z,4.60
2023-05-22T00:41:06.628Z,3.08
2023-05-22T00:43:34.362Z,3.58
2023-05-22T00:46:01.311Z,3.40
2023-05-22T00:48:28.500Z,3.97
2023-05-22T00:50:57.345Z,4.10
2023-05-22T00:53:25.501Z,3.40
2023-05-22T00:55:54.132Z,3.42
2023-05-22T00:58:21.965Z,4.05
2023-05-22T01:00:48.968Z,3.55
2023-05-22T01:03:16.776Z,3.60
2023-05-22T01:05:43.864Z,3.47
2023-05-22T01:08:11.406Z,3.22
2023-05-22T01:10:40.462Z,3.65
2023-05-22T01:13:29.021Z,3.78
2023-05-22T01:16:02.042Z,4.32
2023-05-22T01:18:32.363Z,4.43
2023-05-22T01:21:30.569Z,4.05
2023-05-22T01:24:00.399Z,4.22
2023-05-22T01:27:04.821Z,3.83
2023-05-22T01:30:00.738Z,3.53
2023-05-22T01:32:29.698Z,3.80
2023-05-22T01:35:01.295Z,3.20
2023-05-22T01:37:28.857Z,3.25
2023-05-22T01:39:56.558Z,4.35
2023-05-22T01:42:23.990Z,3.78
2023-05-22T01:44:51.023Z,3.63
2023-05-22T01:47:18.328Z,3.35
2023-05-22T01:49:47.574Z,3.60
2023-05-22T01:52:53.632Z,3.75
2023-05-22T01:55:29.362Z,3.72
2023-05-22T01:58:13.681Z,3.13
2023-05-22T02:00:44.051Z,3.67
2023-05-22T02:03:19.402Z,3.65
2023-05-22T02:05:50.772Z,3.28
2023-05-22T02:08:19.001Z,3.75
2023-05-22T02:10:47.145Z,3.88
2023-05-22T02:13:14.776Z,3.72
2023-05-22T02:15:45.415Z,3.55
2023-05-22T02:18:15.352Z,3.72
2023-05-22T02:20:51.391Z,3.83
2023-05-22T02:23:18.383Z,3.75
2023-05-22T02:25:45.168Z,4.03
2023-05-22T02:28:12.216Z,4.03
2023-05-22T02:30:39.542Z,3.40
2023-05-22T02:33:06.800Z,3.88
2023-05-22T02:35:33.628Z,3.28
2023-05-22T02:38:00.717Z,3.65
2023-05-22T02:40:27.704Z,4.05
2023-05-22T02:42:55.024Z,3.65
2023-05-22T02:45:22.294Z,3.88
2023-05-22T02:47:49.188Z,4.10
2023-05-22T02:50:16.439Z,3.55
2023-05-22T02:52:45.323Z,3.45
2023-05-22T02:55:12.229Z,4.00
2023-05-22T02:57:38.978Z,3.28
2023-05-22T03:00:11.759Z,3.88
2023-05-22T03:02:39.312Z,3.53
2023-05-22T03:05:08.469Z,3.92
2023-05-22T03:07:35.551Z,3.28
2023-05-22T03:10:02.547Z,3.83
2023-05-22T03:12:29.479Z,3.28
2023-05-22T03:14:56.533Z,4.15
2023-05-22T03:17:23.325Z,4.20
2023-05-22T03:19:54.458Z,4.28
2023-05-22T03:22:21.676Z,4.55
2023-05-22T03:24:48.610Z,3.72
2023-05-22T03:27:17.474Z,4.28
2023-05-22T03:29:44.619Z,3.53
2023-05-22T03:32:11.544Z,3.75
2023-05-22T03:34:38.500Z,4.32
2023-05-22T03:37:05.524Z,3.90
2023-05-22T03:39:32.838Z,4.05
2023-05-22T03:41:59.690Z,4.28
2023-05-22T03:44:28.161Z,5.15
2023-05-22T03:46:55.102Z,5.88
2023-05-22T03:49:23.353Z,5.72
2023-05-22T03:51:50.453Z,5.05
2023-05-22T03:54:17.264Z,5.57
2023-05-22T03:56:44.375Z,6.60
2023-05-22T03:59:11.458Z,6.70
2023-05-22T04:01:39.221Z,5.70
2023-05-22T04:04:06.293Z,6.00
2023-05-22T04:06:33.351Z,5.63
2023-05-22T04:09:00.797Z,6.15
2023-05-22T04:11:30.496Z,6.07
2023-05-22T04:13:57.585Z,5.65
2023-05-22T04:16:24.443Z,5.88
2023-05-22T04:18:51.298Z,5.28
2023-05-22T04:21:19.258Z,5.07
2023-05-22T04:23:47.752Z,5.55
2023-05-22T04:26:14.535Z,5.90
2023-05-22T04:28:46.346Z,5.93
2023-05-22T04:31:16.242Z,5.60
2023-05-22T04:33:44.717Z,5.53
2023-05-22T04:36:12.684Z,5.40
2023-05-22T04:38:41.450Z,4.82
2023-05-22T04:41:11.178Z,5.53
2023-05-22T04:43:38.952Z,5.45
2023-05-22T04:46:06.956Z,5.63
2023-05-22T04:48:34.152Z,5.95
2023-05-22T04:51:02.727Z,4.80
2023-05-22T04:53:30.532Z,5.07
2023-05-22T04:55:57.583Z,5.18
2023-05-22T04:58:24.555Z,4.80
2023-05-22T05:00:52.711Z,5.20
2023-05-22T05:03:21.525Z,5.30
2023-05-22T05:05:49.475Z,5.18
2023-05-22T05:08:16.553Z,5.28
2023-05-22T05:10:43.429Z,5.28
2023-05-22T05:13:10.376Z,5.10
2023-05-22T05:15:37.367Z,4.78
2023-05-22T05:18:04.188Z,5.68
2023-05-22T05:23:15.752Z,5.18
2023-05-22T05:25:42.524Z,4.72
2023-05-22T05:28:11.722Z,5.20
2023-05-22T05:30:43.281Z,4.55
2023-05-22T05:33:10.523Z,5.28
2023-05-22T05:35:37.521Z,5.28
2023-05-22T05:38:04.288Z,5.45
2023-05-22T05:40:31.034Z,4.88
2023-05-22T05:42:57.860Z,5.32
2023-05-22T05:45:24.847Z,4.43
2023-05-22T05:47:52.177Z,3.80
2023-05-22T05:50:24.893Z,4.38
2023-05-22T05:52:51.784Z,4.38
2023-05-22T05:55:19.000Z,4.13
2023-05-22T05:57:46.004Z,3.65
2023-05-22T06:00:13.716Z,4.07
2023-05-22T06:02:40.621Z,3.67
2023-05-22T06:05:10.101Z,4.25
2023-05-22T06:07:40.107Z,3.42
2023-05-22T06:10:16.336Z,4.20
2023-05-22T06:12:43.276Z,3.85
2023-05-22T06:15:10.204Z,4.85
2023-05-22T06:17:39.491Z,4.18
2023-05-22T06:20:07.435Z,4.32
2023-05-22T06:22:34.362Z,4.15
2023-05-22T06:25:01.406Z,4.00
2023-05-22T06:27:28.629Z,3.40
2023-05-22T06:29:56.500Z,4.10
2023-05-22T06:32:23.476Z,4.50
2023-05-22T06:34:50.994Z,4.00
2023-05-22T06:37:17.806Z,8.57
2023-05-22T06:39:54.027Z,4.00
2023-05-22T06:42:21.238Z,4.50
2023-05-22T06:44:48.051Z,4.53
2023-05-22T06:47:15.085Z,4.18
2023-05-22T06:49:41.888Z,4.00
2023-05-22T06:52:08.608Z,3.78
2023-05-22T06:54:39.952Z,4.20
2023-05-22T06:57:07.016Z,4.15
2023-05-22T06:59:34.433Z,4.15
2023-05-22T07:02:01.587Z,4.30
2023-05-22T07:04:28.437Z,3.72
2023-05-22T07:06:55.257Z,3.85
2023-05-22T07:09:22.242Z,3.97
2023-05-22T07:11:49.296Z,3.85
2023-05-22T07:14:16.265Z,3.80
2023-05-22T07:16:43.104Z,3.97
2023-05-22T07:19:11.002Z,4.13
2023-05-22T07:21:38.410Z,4.07
2023-05-22T07:24:08.842Z,4.28
2023-05-22T07:26:36.616Z,4.72
2023-05-22T07:29:04.750Z,4.85
2023-05-22T07:31:32.237Z,5.95
2023-05-22T07:33:59.121Z,4.47
2023-05-22T07:36:26.169Z,3.97
2023-05-22T07:38:52.945Z,3.85
2023-05-22T07:41:19.883Z,3.80
2023-05-22T07:43:46.665Z,4.35
2023-05-22T07:46:13.530Z,4.53
2023-05-22T07:48:40.587Z,4.10
2023-05-22T07:51:07.989Z,3.67
2023-05-22T07:53:35.038Z,4.00
2023-05-22T07:56:05.152Z,5.20
2023-05-22T07:58:32.303Z,5.60
2023-05-22T08:00:59.286Z,4.90
2023-05-22T08:03:26.458Z,4.30
2023-05-22T08:05:53.486Z,4.82
2023-05-22T08:08:20.300Z,4.50
2023-05-22T08:11:03.033Z,3.50
2023-05-22T08:13:30.825Z,3.88
2023-05-22T08:16:00.672Z,4.32
2023-05-22T08:18:29.436Z,3.60
2023-05-22T08:20:56.754Z,4.55
2023-05-22T08:23:23.923Z,3.85
2023-05-22T08:25:50.720Z,4.13
2023-05-22T08:28:17.731Z,6.25
2023-05-22T08:30:44.540Z,4.30
2023-05-22T08:33:12.463Z,3.80
2023-05-22T08:35:39.472Z,3.60
2023-05-22T08:38:06.435Z,3.47
2023-05-22T08:40:42.553Z,3.92
2023-05-22T08:43:11.474Z,4.10
2023-05-22T08:45:42.702Z,3.85
2023-05-22T08:48:13.248Z,3.60
2023-05-22T08:50:43.539Z,3.70
2023-05-22T08:53:15.812Z,3.03
2023-05-22T08:55:42.936Z,3.40
2023-05-22T08:58:11.858Z,3.58
2023-05-22T09:00:38.865Z,3.83
2023-05-22T09:03:07.197Z,3.80
2023-05-22T09:05:34.510Z,3.70
2023-05-22T09:08:16.236Z,3.72
2023-05-22T09:10:46.574Z,4.00
2023-05-22T09:13:24.964Z,4.18
2023-05-22T09:15:52.299Z,3.75
2023-05-22T09:18:19.310Z,3.60
2023-05-22T09:20:46.195Z,3.28
2023-05-22T09:23:20.655Z,2.90
2023-05-22T09:25:47.971Z,4.82
2023-05-22T09:28:14.744Z,3.90
2023-05-22T09:30:42.851Z,3.20
2023-05-22T09:33:14.372Z,3.53
2023-05-22T09:35:42.296Z,3.63
2023-05-22T09:38:11.452Z,3.50
2023-05-22T09:40:40.642Z,3.67
2023-05-22T09:43:11.800Z,3.70
2023-05-22T09:45:39.669Z,3.63
2023-05-22T09:48:13.010Z,3.30
2023-05-22T09:50:40.418Z,4.15
2023-05-22T09:53:12.028Z,4.13
2023-05-22T09:55:39.717Z,4.18
2023-05-22T09:58:09.511Z,3.83
2023-05-22T10:00:37.717Z,3.90
2023-05-22T10:03:19.402Z,4.10
2023-05-22T10:05:51.812Z,3.80
2023-05-22T10:08:23.594Z,4.10
2023-05-22T10:10:55.205Z,3.50
2023-05-22T10:13:22.323Z,3.97
2023-05-22T10:15:50.164Z,3.70
2023-05-22T10:18:17.845Z,4.25
2023-05-22T10:20:47.219Z,4.38
2023-05-22T10:23:16.718Z,3.70
2023-05-22T10:25:44.783Z,4.03
2023-05-22T10:28:14.464Z,3.90
2023-05-22T10:30:42.645Z,4.25
2023-05-22T10:33:24.225Z,4.30
2023-05-22T10:35:55.569Z,3.38
2023-05-22T10:38:25.243Z,2.97
2023-05-22T10:40:52.760Z,2.40
2023-05-22T10:43:21.848Z,2.80
2023-05-22T10:45:48.737Z,2.72
2023-05-22T10:48:16.374Z,2.63
2023-05-22T10:50:53.072Z,2.67
2023-05-22T10:53:28.161Z,2.90
2023-05-22T10:56:02.651Z,3.00
2023-05-22T10:58:36.705Z,2.88
2023-05-22T11:01:11.914Z,2.90
2023-05-22T11:03:56.013Z,2.92
2023-05-22T11:06:39.578Z,2.72
2023-05-22T11:09:28.058Z,2.80
2023-05-22T11:12:17.405Z,2.80
2023-05-22T11:15:08.569Z,2.70
2023-05-22T11:17:41.717Z,2.90
2023-05-22T11:20:29.054Z,3.22
2023-05-22T11:23:04.159Z,2.70
2023-05-22T11:25:33.629Z,2.90
2023-05-22T11:28:03.546Z,3.22
2023-05-22T11:30:33.615Z,3.30
2023-05-22T11:33:01.987Z,3.20
2023-05-22T11:35:29.050Z,2.85
2023-05-22T11:37:56.589Z,3.85
2023-05-22T11:40:26.019Z,3.33
2023-05-22T11:42:53.934Z,3.25
2023-05-22T11:45:21.938Z,3.25
2023-05-22T11:47:49.258Z,5.13
2023-05-22T11:50:22.642Z,2.88
2023-05-22T11:52:57.047Z,3.00
2023-05-22T11:55:24.563Z,2.85
2023-05-22T11:57:51.431Z,2.72
2023-05-22T12:00:18.993Z,2.92
2023-05-22T12:02:49.786Z,3.50
2023-05-22T12:05:19.427Z,2.45
2023-05-22T12:07:46.468Z,2.33
2023-05-22T12:10:14.754Z,2.67
2023-05-22T12:12:43.495Z,2.75
2023-05-22T12:18:01.101Z,2.78
2023-05-22T12:20:31.601Z,2.90
2023-05-22T12:22:59.097Z,2.80
2023-05-22T12:25:34.331Z,2.88
2023-05-22T12:28:04.380Z,2.72
2023-05-22T12:30:40.937Z,2.58
2023-05-22T12:33:17.671Z,2.55
2023-05-22T12:35:44.633Z,2.30
2023-05-22T12:38:11.456Z,2.83
2023-05-22T12:40:38.545Z,2.55
2023-05-22T12:43:05.843Z,2.40
2023-05-22T12:45:32.600Z,2.55
2023-05-22T12:47:59.515Z,3.33
2023-05-22T12:50:29.442Z,3.13
2023-05-22T12:52:56.258Z,2.60
2023-05-22T12:55:23.265Z,2.75
2023-05-22T12:57:50.268Z,3.00
2023-05-22T13:00:35.553Z,3.53
2023-05-22T13:03:03.559Z,3.08
2023-05-22T13:05:30.672Z,3.55
2023-05-22T13:07:57.652Z,2.92
2023-05-22T13:10:24.917Z,3.60
2023-05-22T13:12:51.786Z,3.45
2023-05-22T13:15:18.945Z,2.95
2023-05-22T13:17:46.203Z,3.30
2023-05-22T13:20:13.731Z,2.90
2023-05-22T13:22:41.889Z,3.00
2023-05-22T13:25:09.253Z,3.67
2023-05-22T13:27:36.852Z,3.30
2023-05-22T13:30:06.483Z,3.15
2023-05-22T13:32:34.218Z,2.90
2023-05-22T13:35:01.329Z,3.10
2023-05-22T13:37:28.223Z,2.88
2023-05-22T13:39:55.354Z,2.80
2023-05-22T13:42:22.195Z,3.10
2023-05-22T13:44:51.574Z,3.03
2023-05-22T13:47:18.820Z,3.13
2023-05-22T13:49:46.169Z,2.47
2023-05-22T13:52:12.989Z,2.58
2023-05-22T13:54:40.616Z,2.70
2023-05-22T13:57:07.532Z,2.60
2023-05-22T13:59:34.501Z,2.58
2023-05-22T14:02:02.034Z,2.53
2023-05-22T14:04:28.949Z,3.13
2023-05-22T14:06:55.796Z,2.97
2023-05-22T14:09:23.442Z,2.88
2023-05-22T14:11:50.328Z,2.92
2023-05-22T14:14:23.789Z,2.78
2023-05-22T14:16:52.000Z,2.95
2023-05-22T14:19:37.822Z,3.20
2023-05-22T14:22:05.528Z,3.65
2023-05-22T14:24:32.783Z,3.15
2023-05-22T14:26:59.656Z,2.83
2023-05-22T14:29:26.681Z,2.58
2023-05-22T14:32:02.026Z,3.03
2023-05-22T14:34:29.258Z,3.08
2023-05-22T14:36:58.848Z,2.70
2023-05-22T14:39:26.281Z,2.70
2023-05-22T14:41:54.006Z,2.60
2023-05-22T14:44:22.840Z,2.95
2023-05-22T14:46:51.155Z,2.65
2023-05-22T14:49:18.205Z,3.20
2023-05-22T14:51:47.813Z,3.20
2023-05-22T14:54:21.925Z,2.65
2023-05-22T14:56:48.696Z,2.88
2023-05-22T14:59:24.366Z,3.20
2023-05-22T15:01:52.318Z,2.70
2023-05-22T15:04:19.595Z,2.78
2023-05-22T15:06:46.836Z,3.10
2023-05-22T15:09:13.853Z,3.17
2023-05-22T15:14:37.288Z,2.80
2023-05-22T15:17:10.890Z,2.92
2023-05-22T15:19:37.916Z,3.00
2023-05-22T15:22:18.294Z,2.42
2023-05-22T15:24:48.398Z,2.65
2023-05-22T15:27:15.224Z,2.90
2023-05-22T15:29:42.198Z,2.95
2023-05-22T15:32:09.709Z,3.17
2023-05-22T15:34:36.586Z,3.30
2023-05-22T15:37:03.407Z,2.88
2023-05-22T15:39:30.574Z,3.08
2023-05-22T15:42:05.902Z,3.08
2023-05-22T15:44:33.906Z,2.70
2023-05-22T15:47:00.729Z,3.20
2023-05-22T15:49:30.942Z,3.13
2023-05-22T15:51:58.629Z,3.13
2023-05-22T15:54:25.427Z,3.20
2023-05-22T15:56:52.716Z,3.00
2023-05-22T15:59:19.728Z,3.00
2023-05-22T16:01:46.745Z,2.97
2023-05-22T16:04:13.634Z,3.05
2023-05-22T16:06:40.696Z,3.25
2023-05-22T16:09:08.138Z,2.80
2023-05-22T16:11:35.028Z,2.95
2023-05-22T16:14:02.038Z,3.03
2023-05-22T16:16:28.965Z,2.85
2023-05-22T16:18:55.956Z,3.60
2023-05-22T16:21:22.880Z,3.03
2023-05-22T16:23:49.933Z,3.35
2023-05-22T16:26:17.026Z,3.55
2023-05-22T16:28:44.301Z,3.10
2023-05-22T16:31:13.058Z,2.72
2023-05-22T16:33:39.916Z,3.10
2023-05-22T16:36:07.296Z,3.30
2023-05-22T16:38:34.425Z,2.40
2023-05-22T16:41:01.455Z,2.85
2023-05-22T16:43:28.423Z,2.45
2023-05-22T16:45:55.143Z,3.05
2023-05-22T16:48:21.986Z,2.80
2023-05-22T16:50:48.937Z,2.35
2023-05-22T16:53:18.709Z,2.38
2023-05-22T16:55:45.761Z,2.80
2023-05-22T16:58:12.835Z,2.58
2023-05-22T17:00:40.518Z,2.45
2023-05-22T17:03:09.241Z,1.98
2023-05-22T17:05:36.931Z,2.50
2023-05-22T17:08:03.891Z,1.70
2023-05-22T17:10:30.823Z,2.17
2023-05-22T17:12:57.708Z,2.40
2023-05-22T17:15:24.495Z,2.10
2023-05-22T17:17:51.384Z,2.25
2023-05-22T17:20:19.022Z,2.15
2023-05-22T17:22:45.747Z,2.10
2023-05-22T17:25:13.754Z,2.17
2023-05-22T17:27:40.721Z,2.20
2023-05-22T17:30:08.658Z,2.38
2023-05-22T17:32:36.254Z,3.20
2023-05-22T17:35:03.379Z,2.45
2023-05-22T17:37:30.321Z,2.58
2023-05-22T17:39:57.346Z,2.95
2023-05-22T17:42:24.477Z,2.65
2023-05-22T17:44:51.366Z,2.63
2023-05-22T17:47:18.549Z,2.80
2023-05-22T17:49:45.569Z,2.53
2023-05-22T17:52:13.256Z,2.80
2023-05-22T17:54:40.096Z,3.15
2023-05-22T17:57:06.832Z,3.28
2023-05-22T17:59:33.812Z,3.08
2023-05-22T18:02:00.663Z,3.17
2023-05-22T18:04:27.457Z,3.38
2023-05-22T18:06:54.090Z,2.80
2023-05-22T18:09:20.964Z,2.95
2023-05-22T18:11:50.462Z,3.50
2023-05-22T18:14:17.284Z,3.90
2023-05-22T18:16:44.176Z,2.92
2023-05-22T18:19:10.988Z,3.28
2023-05-22T18:21:37.758Z,3.13
2023-05-22T18:24:04.751Z,3.35
2023-05-22T18:26:35.061Z,3.67
2023-05-22T18:29:01.949Z,3.60
2023-05-22T18:31:29.337Z,3.50
2023-05-22T18:33:56.178Z,2.95
2023-05-22T18:36:23.201Z,3.45
2023-05-22T18:38:50.234Z,4.03
2023-05-22T18:41:16.998Z,3.50
2023-05-22T18:43:44.017Z,3.55
2023-05-22T18:46:10.914Z,3.33
2023-05-22T18:48:37.799Z,3.17
2023-05-22T18:51:04.828Z,3.05
2023-05-22T18:53:31.881Z,3.00
2023-05-22T18:55:58.700Z,3.00
2023-05-22T18:58:25.862Z,3.38
2023-05-22T19:00:55.552Z,3.45
2023-05-22T19:03:22.430Z,3.63
2023-05-22T19:05:49.319Z,3.15
2023-05-22T19:08:16.141Z,3.95
2023-05-22T19:10:43.050Z,3.20
2023-05-22T19:13:10.236Z,3.47
2023-05-22T19:15:38.498Z,3.85
2023-05-22T19:18:05.643Z,3.05
2023-05-22T19:20:32.566Z,3.70
2023-05-22T19:22:59.403Z,3.70
2023-05-22T19:25:28.770Z,2.95
2023-05-22T19:27:56.821Z,3.70
2023-05-22T19:30:23.694Z,3.63
2023-05-22T19:32:50.595Z,3.47
2023-05-22T19:35:17.858Z,3.25
2023-05-22T19:37:44.727Z,3.63
2023-05-22T19:40:11.636Z,3.90
2023-05-22T19:42:41.212Z,3.70
2023-05-22T19:45:08.734Z,3.38
2023-05-22T19:47:35.730Z,3.78
2023-05-22T19:50:02.732Z,3.67
2023-05-22T19:52:29.625Z,3.78
2023-05-22T19:54:56.423Z,3.58
2023-05-22T19:57:23.220Z,3.28
2023-05-22T19:59:51.231Z,3.75
2023-05-22T20:02:18.139Z,3.65
2023-05-22T20:04:48.508Z,3.42
2023-05-22T20:07:15.805Z,3.80
2023-05-22T20:09:42.699Z,3.80
2023-05-22T20:12:10.624Z,3.63
2023-05-22T20:14:37.810Z,3.58
2023-05-22T20:17:04.847Z,3.65
2023-05-22T20:19:34.724Z,4.25
2023-05-22T20:22:02.398Z,4.30
2023-05-22T20:24:29.772Z,3.78
2023-05-22T20:26:57.982Z,4.05
2023-05-22T20:29:24.816Z,4.13
2023-05-22T20:31:54.700Z,3.65
2023-05-22T20:34:22.524Z,4.20
2023-05-22T20:36:49.501Z,3.42
2023-05-22T20:39:18.269Z,3.70
2023-05-22T20:41:46.467Z,4.13
2023-05-22T20:44:13.705Z,3.55
2023-05-22T20:46:40.688Z,3.78
2023-05-22T20:49:07.625Z,3.92
2023-05-22T20:51:34.520Z,3.92
2023-05-22T20:54:01.980Z,3.85
2023-05-22T20:56:30.192Z,3.80
2023-05-22T20:58:57.508Z,3.50
2023-05-22T21:01:25.077Z,3.47
2023-05-22T21:03:53.522Z,3.70
2023-05-22T21:06:20.821Z,3.85
2023-05-22T21:08:48.180Z,3.70
2023-05-22T21:11:15.931Z,3.78
2023-05-22T21:13:42.823Z,4.25
2023-05-22T21:16:10.248Z,3.47
2023-05-22T21:18:37.053Z,3.08
2023-05-22T21:21:03.935Z,3.47
2023-05-22T21:23:30.923Z,3.80
2023-05-22T21:25:57.967Z,3.95
2023-05-22T21:28:25.046Z,3.50
2023-05-22T21:30:52.141Z,3.70
2023-05-22T21:33:18.968Z,4.38
2023-05-22T21:35:46.238Z,3.60
2023-05-22T21:38:13.184Z,3.45
2023-05-22T21:40:42.230Z,4.10
2023-05-22T21:43:09.672Z,3.67
2023-05-22T21:45:37.402Z,3.60
2023-05-22T21:48:04.775Z,3.75
2023-05-22T21:50:31.916Z,3.80
2023-05-22T21:52:58.772Z,3.65
2023-05-22T21:55:25.659Z,4.10
2023-05-22T21:57:53.078Z,3.47
2023-05-22T22:00:19.996Z,3.63
2023-05-22T22:02:46.934Z,4.35
2023-05-22T22:05:14.104Z,3.60
2023-05-22T22:07:41.140Z,3.33
2023-05-22T22:10:08.534Z,3.83
2023-05-22T22:12:35.356Z,3.90
2023-05-22T22:15:02.594Z,3.25
2023-05-22T22:17:30.325Z,3.28
2023-05-22T22:19:57.508Z,3.42
2023-05-22T22:22:25.097Z,3.72
2023-05-22T22:24:52.185Z,3.53
2023-05-22T22:27:20.073Z,3.70
2023-05-22T22:29:48.189Z,4.10
2023-05-22T22:32:15.294Z,3.28
2023-05-22T22:34:43.445Z,3.58
2023-05-22T22:37:10.427Z,3.53
2023-05-22T22:39:37.437Z,3.40
2023-05-22T22:42:05.315Z,3.00
2023-05-22T22:44:32.505Z,3.60
2023-05-22T22:47:01.982Z,3.53
2023-05-22T22:49:28.972Z,3.90
2023-05-22T22:51:56.604Z,4.10
2023-05-22T22:54:24.172Z,3.83
2023-05-22T22:56:51.750Z,4.30
2023-05-22T22:59:18.726Z,3.90
2023-05-22T23:01:45.721Z,3.58
2023-05-22T23:04:14.085Z,3.80
2023-05-22T23:06:44.145Z,3.45
2023-05-22T23:09:11.384Z,3.78
2023-05-22T23:11:39.124Z,3.53
2023-05-22T23:14:08.555Z,4.13
2023-05-22T23:16:41.320Z,3.60
2023-05-22T23:19:09.295Z,3.72
2023-05-22T23:21:36.701Z,3.38
2023-05-22T23:24:04.932Z,3.97
2023-05-22T23:26:32.722Z,3.83
2023-05-22T23:29:00.747Z,3.50
2023-05-22T23:31:30.847Z,3.95
2023-05-22T23:33:58.643Z,3.97
2023-05-22T23:36:25.997Z,4.20
2023-05-22T23:38:53.053Z,3.60
2023-05-22T23:41:19.990Z,3.85
2023-05-22T23:43:47.657Z,3.78
2023-05-22T23:46:15.202Z,4.22
2023-05-22T23:48:42.712Z,4.40
2023-05-22T23:51:14.506Z,3.45
2023-05-22T23:53:42.606Z,3.58
2023-05-22T23:56:10.375Z,3.70
2023-05-22T23:58:38.269Z,3.85
